createdAt,value
2019-05-29T00:00:15.691Z,59.77
2019-05-29T00:01:19.799Z,59.97
2019-05-29T00:02:16.683Z,59.87
2019-05-29T00:03:15.660Z,59.77
2019-05-29T00:04:15.645Z,59.77
2019-05-29T00:05:15.644Z,58.95
2019-05-29T00:06:15.644Z,59.26
2019-05-29T00:07:15.613Z,59.05
2019-05-29T00:08:15.611Z,58.85
2019-05-29T00:09:15.594Z,58.78
2019-05-29T00:10:15.574Z,58.67
2019-05-29T00:11:15.587Z,58.67
2019-05-29T00:12:19.568Z,59.59
2019-05-29T00:13:16.562Z,59.39
2019-05-29T00:14:22.603Z,60.41
2019-05-29T00:15:16.528Z,59.39
2019-05-29T00:16:15.541Z,59.18
2019-05-29T00:17:15.511Z,59.59
2019-05-29T00:18:15.487Z,60.53
2019-05-29T00:19:15.491Z,59.11
2019-05-29T00:20:15.467Z,59.08
2019-05-29T00:21:15.479Z,59.21
2019-05-29T00:22:15.443Z,58.80
2019-05-29T00:23:15.447Z,58.91
2019-05-29T00:24:15.436Z,59.31
2019-05-29T00:25:16.599Z,59.72
2019-05-29T00:26:16.550Z,60.23
2019-05-29T00:27:15.632Z,59.82
2019-05-29T00:28:15.384Z,60.13
2019-05-29T00:29:15.382Z,59.72
2019-05-29T00:30:15.359Z,60.05
2019-05-29T00:31:15.371Z,60.05
2019-05-29T00:32:15.331Z,60.03
2019-05-29T00:33:15.319Z,60.13
2019-05-29T00:34:15.319Z,60.26
2019-05-29T00:35:16.377Z,59.95
2019-05-29T00:36:16.438Z,60.05
2019-05-29T00:37:15.602Z,60.87
2019-05-29T00:38:15.261Z,59.75
2019-05-29T00:39:15.246Z,60.57
2019-05-29T00:40:15.261Z,60.74
2019-05-29T00:41:15.267Z,60.33
2019-05-29T00:42:16.006Z,60.33
2019-05-29T00:43:15.541Z,60.13
2019-05-29T00:44:15.445Z,59.72
2019-05-29T00:45:15.629Z,60.74
2019-05-29T00:46:15.579Z,59.31
2019-05-29T00:47:15.682Z,58.91
2019-05-29T00:48:16.034Z,59.21
2019-05-29T00:49:15.998Z,59.31
2019-05-29T00:50:16.134Z,60.03
2019-05-29T00:51:15.173Z,60.03
2019-05-29T00:52:16.516Z,60.23
2019-05-29T00:53:16.287Z,60.33
2019-05-29T00:54:15.097Z,60.03
2019-05-29T00:55:15.072Z,59.41
2019-05-29T00:56:15.057Z,59.52
2019-05-29T00:57:15.348Z,59.31
2019-05-29T00:58:15.047Z,59.11
2019-05-29T00:59:15.143Z,58.91
2019-05-29T01:00:15.253Z,59.52
2019-05-29T01:01:15.488Z,59.92
2019-05-29T01:02:15.897Z,59.41
2019-05-29T01:03:15.874Z,59.03
2019-05-29T01:04:15.732Z,59.31
2019-05-29T01:05:16.142Z,59.11
2019-05-29T01:06:15.995Z,59.62
2019-05-29T01:07:16.062Z,58.91
2019-05-29T01:08:14.944Z,59.03
2019-05-29T01:09:14.931Z,59.55
2019-05-29T01:10:14.913Z,59.44
2019-05-29T01:11:14.925Z,60.16
2019-05-29T01:12:14.925Z,59.85
2019-05-29T01:13:15.173Z,60.28
2019-05-29T01:14:15.125Z,60.77
2019-05-29T01:15:15.437Z,59.85
2019-05-29T01:16:15.381Z,60.39
2019-05-29T01:17:15.568Z,60.69
2019-05-29T01:18:15.767Z,60.08
2019-05-29T01:19:15.911Z,60.80
2019-05-29T01:20:15.899Z,60.49
2019-05-29T01:21:15.888Z,60.39
2019-05-29T01:22:14.792Z,60.72
2019-05-29T01:23:14.772Z,60.01
2019-05-29T01:24:14.758Z,60.72
2019-05-29T01:25:14.739Z,60.52
2019-05-29T01:26:14.735Z,61.03
2019-05-29T01:27:15.176Z,60.93
2019-05-29T01:28:14.741Z,61.03
2019-05-29T01:29:14.954Z,60.80
2019-05-29T01:30:15.102Z,60.52
2019-05-29T01:31:15.193Z,60.65
2019-05-29T01:32:15.512Z,60.42
2019-05-29T01:33:18.568Z,60.83
2019-05-29T01:34:15.708Z,61.36
2019-05-29T01:35:15.718Z,61.98
2019-05-29T01:36:15.862Z,61.47
2019-05-29T01:37:14.701Z,61.57
2019-05-29T01:38:15.173Z,61.47
2019-05-29T01:39:15.113Z,61.98
2019-05-29T01:40:21.165Z,61.77
2019-05-29T01:41:15.562Z,62.18
2019-05-29T01:42:15.200Z,62.08
2019-05-29T01:43:15.324Z,62.18
2019-05-29T01:44:15.325Z,62.52
2019-05-29T01:45:15.411Z,62.39
2019-05-29T01:46:15.210Z,62.90
2019-05-29T01:47:15.353Z,62.83
2019-05-29T01:48:15.396Z,62.73
2019-05-29T01:49:16.063Z,62.59
2019-05-29T01:50:15.564Z,62.73
2019-05-29T01:51:15.432Z,62.42
2019-05-29T01:52:15.499Z,63.03
2019-05-29T01:53:15.496Z,63.13
2019-05-29T01:54:15.476Z,62.73
2019-05-29T01:55:15.620Z,63.44
2019-05-29T01:56:15.478Z,63.24
2019-05-29T01:57:15.679Z,63.85
2019-05-29T01:58:15.556Z,63.65
2019-05-29T01:59:15.621Z,63.85
2019-05-29T02:00:15.659Z,64.06
2019-05-29T02:01:15.756Z,64.16
2019-05-29T02:02:15.681Z,64.47
2019-05-29T02:03:15.668Z,64.67
2019-05-29T02:04:15.739Z,64.87
2019-05-29T02:05:14.288Z,64.47
2019-05-29T02:06:14.299Z,64.29
2019-05-29T02:07:14.315Z,64.29
2019-05-29T02:08:14.272Z,64.90
2019-05-29T02:09:14.252Z,64.70
2019-05-29T02:10:14.272Z,65.31
2019-05-29T02:11:14.991Z,65.52
2019-05-29T02:12:14.237Z,65.52
2019-05-29T02:13:15.179Z,65.83
2019-05-29T02:14:14.204Z,66.24
2019-05-29T02:15:24.844Z,66.03
2019-05-29T02:16:16.395Z,66.13
2019-05-29T02:17:15.493Z,66.88
2019-05-29T02:18:14.147Z,66.24
2019-05-29T02:19:14.167Z,66.64
2019-05-29T02:20:14.124Z,65.83
2019-05-29T02:21:14.129Z,67.05
2019-05-29T02:22:14.107Z,66.64
2019-05-29T02:23:14.141Z,66.44
2019-05-29T02:24:14.088Z,66.24
2019-05-29T02:25:16.413Z,66.24
2019-05-29T02:26:14.066Z,66.78
2019-05-29T02:27:14.067Z,66.78
2019-05-29T02:28:14.089Z,66.88
2019-05-29T02:29:14.056Z,66.88
2019-05-29T02:30:14.028Z,66.34
2019-05-29T02:31:14.006Z,66.64
2019-05-29T02:32:13.999Z,66.54
2019-05-29T02:33:14.012Z,66.85
2019-05-29T02:34:13.980Z,67.36
2019-05-29T02:35:13.966Z,66.95
2019-05-29T02:36:13.956Z,66.98
2019-05-29T02:37:13.944Z,67.40
2019-05-29T02:38:13.958Z,67.67
2019-05-29T02:39:13.931Z,67.19
2019-05-29T02:40:13.918Z,67.80
2019-05-29T02:41:13.907Z,68.21
2019-05-29T02:42:13.887Z,68.11
2019-05-29T02:43:13.961Z,68.01
2019-05-29T02:44:13.866Z,67.80
2019-05-29T02:45:13.863Z,68.21
2019-05-29T02:46:13.854Z,68.11
2019-05-29T02:47:13.843Z,67.97
2019-05-29T02:48:13.848Z,68.01
2019-05-29T02:49:13.823Z,67.97
2019-05-29T02:50:13.804Z,68.01
2019-05-29T02:51:13.811Z,68.11
2019-05-29T02:52:13.794Z,68.01
2019-05-29T02:53:13.800Z,68.18
2019-05-29T02:54:13.757Z,67.70
2019-05-29T02:55:13.744Z,67.46
2019-05-29T02:56:13.738Z,67.80
2019-05-29T02:57:13.741Z,68.32
2019-05-29T02:58:13.735Z,68.32
2019-05-29T02:59:13.695Z,68.62
2019-05-29T03:00:13.696Z,68.41
2019-05-29T03:01:13.709Z,68.73
2019-05-29T03:02:13.662Z,68.62
2019-05-29T03:03:13.685Z,68.62
2019-05-29T03:04:13.648Z,68.52
2019-05-29T03:05:13.631Z,68.83
2019-05-29T03:06:13.644Z,68.93
2019-05-29T03:07:13.615Z,68.93
2019-05-29T03:08:13.623Z,68.83
2019-05-29T03:09:13.590Z,69.13
2019-05-29T03:10:13.645Z,68.52
2019-05-29T03:11:13.568Z,68.59
2019-05-29T03:12:13.570Z,68.59
2019-05-29T03:13:13.555Z,68.38
2019-05-29T03:14:13.542Z,68.52
2019-05-29T03:15:13.525Z,68.73
2019-05-29T03:16:13.534Z,68.83
2019-05-29T03:17:13.501Z,68.93
2019-05-29T03:18:13.508Z,68.93
2019-05-29T03:19:13.491Z,68.83
2019-05-29T03:20:13.465Z,69.03
2019-05-29T03:21:13.465Z,68.83
2019-05-29T03:22:13.455Z,69.13
2019-05-29T03:23:13.447Z,69.13
2019-05-29T03:24:13.421Z,69.24
2019-05-29T03:25:13.420Z,69.24
2019-05-29T03:26:13.400Z,69.24
2019-05-29T03:27:13.405Z,69.34
2019-05-29T03:28:13.406Z,69.24
2019-05-29T03:29:13.372Z,69.03
2019-05-29T03:30:13.350Z,69.54
2019-05-29T03:31:13.352Z,69.54
2019-05-29T03:32:14.631Z,69.78
2019-05-29T03:33:13.329Z,69.65
2019-05-29T03:34:13.333Z,69.75
2019-05-29T03:35:13.304Z,70.06
2019-05-29T03:36:13.297Z,69.75
2019-05-29T03:37:13.276Z,69.54
2019-05-29T03:38:13.264Z,69.95
2019-05-29T03:39:13.279Z,70.16
2019-05-29T03:40:13.257Z,69.65
2019-05-29T03:41:13.240Z,69.85
2019-05-29T03:42:13.251Z,69.65
2019-05-29T03:43:13.210Z,69.95
2019-05-29T03:44:13.228Z,69.54
2019-05-29T03:45:13.198Z,70.19
2019-05-29T03:46:30.169Z,70.26
2019-05-29T03:47:14.171Z,70.26
2019-05-29T03:48:13.151Z,70.40
2019-05-29T03:49:13.169Z,70.47
2019-05-29T03:50:15.645Z,70.87
2019-05-29T03:51:13.129Z,70.77
2019-05-29T03:52:13.122Z,69.75
2019-05-29T03:53:13.094Z,69.65
2019-05-29T03:54:13.135Z,70.16
2019-05-29T03:55:13.076Z,70.06
2019-05-29T03:56:13.081Z,70.16
2019-05-29T03:57:13.055Z,70.06
2019-05-29T03:58:13.045Z,70.06
2019-05-29T03:59:13.054Z,70.16
2019-05-29T04:00:13.041Z,70.16
2019-05-29T04:01:13.026Z,70.43
2019-05-29T04:02:12.999Z,70.26
2019-05-29T04:03:13.014Z,69.75
2019-05-29T04:04:13.002Z,70.26
2019-05-29T04:05:13.960Z,70.67
2019-05-29T04:06:12.969Z,70.67
2019-05-29T04:07:12.961Z,70.26
2019-05-29T04:08:12.935Z,70.43
2019-05-29T04:09:13.023Z,70.33
2019-05-29T04:10:12.936Z,70.03
2019-05-29T04:11:12.904Z,69.71
2019-05-29T04:12:12.887Z,69.61
2019-05-29T04:13:12.877Z,69.61
2019-05-29T04:14:12.905Z,69.71
2019-05-29T04:15:12.856Z,70.12
2019-05-29T04:16:12.856Z,70.03
2019-05-29T04:17:12.854Z,70.23
2019-05-29T04:18:12.827Z,70.12
2019-05-29T04:19:12.832Z,70.12
2019-05-29T04:20:12.809Z,70.33
2019-05-29T04:21:12.791Z,70.03
2019-05-29T04:22:12.775Z,70.23
2019-05-29T04:23:12.773Z,70.03
2019-05-29T04:24:12.789Z,70.43
2019-05-29T04:25:12.771Z,70.03
2019-05-29T04:26:12.733Z,70.12
2019-05-29T04:27:12.728Z,70.12
2019-05-29T04:28:12.724Z,70.43
2019-05-29T04:29:12.718Z,70.12
2019-05-29T04:30:12.749Z,70.33
2019-05-29T04:31:12.682Z,70.23
2019-05-29T04:32:12.693Z,70.43
2019-05-29T04:33:12.658Z,70.23
2019-05-29T04:34:12.648Z,70.43
2019-05-29T04:35:12.660Z,70.94
2019-05-29T04:36:12.656Z,70.74
2019-05-29T04:37:12.638Z,70.33
2019-05-29T04:38:12.599Z,70.64
2019-05-29T04:39:12.604Z,70.33
2019-05-29T04:40:12.623Z,70.29
2019-05-29T04:41:12.599Z,70.09
2019-05-29T04:42:12.566Z,70.09
2019-05-29T04:43:12.538Z,70.40
2019-05-29T04:44:12.535Z,70.12
2019-05-29T04:45:12.566Z,70.40
2019-05-29T04:46:12.525Z,70.23
2019-05-29T04:47:12.846Z,70.40
2019-05-29T04:48:12.493Z,70.40
2019-05-29T04:49:12.489Z,70.50
2019-05-29T04:50:12.491Z,70.12
2019-05-29T04:51:12.451Z,70.12
2019-05-29T04:52:12.503Z,70.12
2019-05-29T04:53:12.446Z,70.43
2019-05-29T04:54:12.428Z,70.43
2019-05-29T04:55:12.547Z,70.74
2019-05-29T04:56:12.423Z,70.12
2019-05-29T04:57:12.420Z,70.64
2019-05-29T04:58:12.379Z,70.12
2019-05-29T04:59:12.395Z,70.53
2019-05-29T05:00:12.381Z,70.94
2019-05-29T05:01:12.353Z,70.12
2019-05-29T05:02:12.346Z,70.53
2019-05-29T05:03:12.327Z,70.23
2019-05-29T05:04:12.312Z,70.23
2019-05-29T05:05:12.320Z,70.33
2019-05-29T05:06:12.295Z,70.12
2019-05-29T05:07:12.294Z,70.23
2019-05-29T05:08:12.265Z,70.53
2019-05-29T05:09:12.255Z,70.09
2019-05-29T05:10:12.272Z,70.81
2019-05-29T05:11:12.239Z,70.43
2019-05-29T05:12:12.220Z,70.61
2019-05-29T05:13:12.212Z,69.68
2019-05-29T05:14:12.209Z,69.58
2019-05-29T05:15:12.208Z,69.99
2019-05-29T05:16:12.187Z,70.06
2019-05-29T05:17:25.379Z,70.16
2019-05-29T05:18:13.151Z,70.16
2019-05-29T05:19:12.162Z,68.93
2019-05-29T05:20:12.159Z,68.73
2019-05-29T05:21:12.119Z,69.24
2019-05-29T05:22:12.116Z,68.93
2019-05-29T05:23:12.136Z,68.84
2019-05-29T05:24:12.088Z,69.04
2019-05-29T05:25:12.094Z,68.84
2019-05-29T05:26:12.068Z,68.87
2019-05-29T05:27:12.063Z,69.14
2019-05-29T05:28:12.046Z,69.04
2019-05-29T05:29:12.039Z,68.87
2019-05-29T05:30:12.041Z,68.66
2019-05-29T05:31:12.008Z,68.76
2019-05-29T05:32:12.002Z,69.07
2019-05-29T05:33:12.012Z,69.17
2019-05-29T05:34:11.980Z,69.04
2019-05-29T05:35:14.313Z,69.24
2019-05-29T05:36:11.978Z,69.04
2019-05-29T05:37:11.938Z,68.63
2019-05-29T05:38:11.942Z,68.52
2019-05-29T05:39:11.932Z,68.84
2019-05-29T05:40:11.939Z,68.84
2019-05-29T05:41:11.930Z,68.01
2019-05-29T05:42:11.893Z,68.01
2019-05-29T05:43:23.613Z,67.40
2019-05-29T05:44:12.872Z,67.91
2019-05-29T05:45:11.864Z,68.01
2019-05-29T05:46:11.885Z,67.71
2019-05-29T05:47:11.835Z,68.01
2019-05-29T05:48:11.817Z,67.60
2019-05-29T05:49:11.807Z,67.30
2019-05-29T05:50:11.800Z,67.40
2019-05-29T05:51:11.807Z,67.60
2019-05-29T05:52:11.791Z,65.94
2019-05-29T05:53:11.772Z,65.56
2019-05-29T05:54:11.766Z,64.13
2019-05-29T05:55:11.756Z,65.43
2019-05-29T05:56:11.923Z,65.33
2019-05-29T05:57:11.733Z,65.63
2019-05-29T05:58:11.717Z,64.71
2019-05-29T05:59:11.700Z,63.69
2019-05-29T06:00:11.688Z,63.69
2019-05-29T06:01:11.700Z,62.57
2019-05-29T06:02:11.669Z,62.95
2019-05-29T06:03:11.658Z,62.43
2019-05-29T06:04:11.644Z,63.15
2019-05-29T06:05:11.637Z,62.46
2019-05-29T06:06:11.640Z,62.84
2019-05-29T06:07:11.650Z,62.54
2019-05-29T06:08:11.607Z,62.71
2019-05-29T06:09:11.587Z,62.10
2019-05-29T06:10:11.582Z,62.71
2019-05-29T06:11:11.583Z,60.87
2019-05-29T06:12:11.555Z,60.57
2019-05-29T06:13:11.545Z,60.67
2019-05-29T06:14:11.545Z,60.46
2019-05-29T06:15:11.522Z,59.64
2019-05-29T06:16:11.530Z,59.34
2019-05-29T06:17:11.504Z,59.47
2019-05-29T06:18:21.301Z,59.98
2019-05-29T06:19:12.465Z,59.44
2019-05-29T06:20:11.474Z,59.16
2019-05-29T06:21:11.477Z,60.08
2019-05-29T06:22:11.447Z,59.06
2019-05-29T06:23:11.468Z,59.16
2019-05-29T06:24:11.444Z,59.06
2019-05-29T06:25:11.418Z,59.16
2019-05-29T06:26:11.421Z,59.16
2019-05-29T06:27:11.391Z,59.27
2019-05-29T06:28:11.373Z,59.06
2019-05-29T06:29:11.368Z,59.27
2019-05-29T06:30:11.363Z,58.75
2019-05-29T06:31:11.369Z,59.39
2019-05-29T06:32:11.366Z,59.50
2019-05-29T06:33:11.327Z,59.09
2019-05-29T06:34:11.318Z,59.06
2019-05-29T06:35:11.332Z,59.30
2019-05-29T06:36:11.327Z,59.16
2019-05-29T06:37:11.283Z,59.09
2019-05-29T06:38:11.261Z,59.06
2019-05-29T06:39:11.260Z,59.37
2019-05-29T06:40:11.254Z,59.06
2019-05-29T06:41:11.300Z,58.65
2019-05-29T06:42:11.253Z,59.14
2019-05-29T06:43:11.992Z,58.83
2019-05-29T06:44:11.265Z,58.62
2019-05-29T06:45:11.198Z,58.62
2019-05-29T06:46:11.177Z,59.34
2019-05-29T06:47:11.189Z,58.93
2019-05-29T06:48:11.158Z,57.07
2019-05-29T06:49:11.265Z,57.37
2019-05-29T06:50:11.136Z,57.57
2019-05-29T06:51:11.238Z,57.48
2019-05-29T06:52:11.144Z,56.76
2019-05-29T06:53:11.103Z,57.37
2019-05-29T06:54:11.098Z,57.88
2019-05-29T06:55:11.073Z,57.68
2019-05-29T06:56:11.244Z,56.96
2019-05-29T06:57:11.094Z,56.86
2019-05-29T06:58:11.113Z,56.86
2019-05-29T06:59:11.038Z,57.68
2019-05-29T07:00:11.041Z,57.37
2019-05-29T07:01:11.011Z,57.27
2019-05-29T07:02:11.020Z,57.57
2019-05-29T07:03:10.987Z,57.17
2019-05-29T07:04:12.504Z,56.66
2019-05-29T07:05:10.970Z,56.76
2019-05-29T07:06:10.959Z,56.66
2019-05-29T07:07:10.958Z,56.66
2019-05-29T07:08:19.189Z,54.00
2019-05-29T07:09:11.926Z,55.74
2019-05-29T07:10:10.922Z,55.94
2019-05-29T07:11:10.907Z,55.33
2019-05-29T07:12:10.912Z,55.54
2019-05-29T07:13:10.882Z,55.63
2019-05-29T07:14:10.882Z,54.33
2019-05-29T07:15:10.857Z,54.00
2019-05-29T07:16:10.853Z,54.61
2019-05-29T07:17:10.855Z,54.23
2019-05-29T07:18:10.826Z,54.31
2019-05-29T07:19:45.118Z,54.82
2019-05-29T07:20:11.805Z,53.90
2019-05-29T07:21:10.788Z,54.41
2019-05-29T07:22:10.784Z,54.31
2019-05-29T07:23:10.768Z,53.70
2019-05-29T07:24:10.758Z,54.00
2019-05-29T07:25:10.758Z,53.80
2019-05-29T07:26:10.726Z,54.00
2019-05-29T07:27:13.399Z,54.31
2019-05-29T07:28:10.731Z,53.80
2019-05-29T07:29:10.729Z,52.98
2019-05-29T07:30:10.777Z,53.29
2019-05-29T07:31:10.685Z,52.88
2019-05-29T07:32:10.689Z,52.58
2019-05-29T07:33:10.675Z,53.49
2019-05-29T07:34:10.645Z,52.96
2019-05-29T07:35:10.639Z,53.16
2019-05-29T07:36:10.629Z,52.96
2019-05-29T07:37:10.626Z,53.36
2019-05-29T07:38:10.603Z,53.67
2019-05-29T07:39:10.592Z,53.88
2019-05-29T07:40:10.615Z,54.05
2019-05-29T07:41:10.581Z,54.26
2019-05-29T07:42:10.580Z,53.96
2019-05-29T07:43:10.568Z,53.72
2019-05-29T07:44:10.541Z,53.83
2019-05-29T07:45:10.550Z,53.62
2019-05-29T07:46:10.508Z,53.62
2019-05-29T07:47:10.520Z,54.54
2019-05-29T07:48:10.522Z,54.51
2019-05-29T07:49:10.495Z,54.44
2019-05-29T07:50:10.473Z,54.44
2019-05-29T07:51:10.451Z,53.92
2019-05-29T07:52:10.439Z,53.83
2019-05-29T07:53:10.459Z,53.90
2019-05-29T07:54:10.433Z,53.50
2019-05-29T07:55:10.505Z,53.19
2019-05-29T07:56:22.237Z,52.98
2019-05-29T07:57:11.379Z,52.27
2019-05-29T07:58:10.397Z,52.48
2019-05-29T07:59:10.368Z,51.56
2019-05-29T08:00:10.352Z,51.97
2019-05-29T08:01:13.655Z,52.07
2019-05-29T08:02:10.340Z,52.07
2019-05-29T08:03:10.336Z,52.17
2019-05-29T08:04:10.304Z,51.86
2019-05-29T08:05:10.300Z,52.27
2019-05-29T08:06:10.280Z,51.76
2019-05-29T08:07:10.292Z,51.56
2019-05-29T08:08:10.287Z,51.76
2019-05-29T08:09:10.275Z,51.76
2019-05-29T08:10:10.264Z,52.07
2019-05-29T08:11:10.234Z,51.15
2019-05-29T08:12:10.224Z,51.15
2019-05-29T08:13:10.246Z,50.34
2019-05-29T08:14:10.197Z,49.93
2019-05-29T08:15:10.196Z,49.93
2019-05-29T08:16:10.180Z,50.34
2019-05-29T08:17:10.197Z,50.03
2019-05-29T08:18:10.186Z,50.74
2019-05-29T08:19:10.151Z,49.93
2019-05-29T08:20:10.138Z,50.34
2019-05-29T08:21:10.127Z,50.23
2019-05-29T08:22:10.165Z,50.13
2019-05-29T08:23:10.116Z,50.03
2019-05-29T08:24:10.121Z,51.43
2019-05-29T08:25:10.081Z,51.56
2019-05-29T08:26:10.068Z,50.42
2019-05-29T08:27:10.057Z,50.31
2019-05-29T08:28:10.081Z,50.01
2019-05-29T08:29:10.045Z,48.99
2019-05-29T08:30:10.030Z,49.60
2019-05-29T08:31:10.026Z,49.40
2019-05-29T08:32:10.007Z,50.11
2019-05-29T08:33:10.012Z,49.40
2019-05-29T08:34:09.982Z,49.50
2019-05-29T08:35:09.967Z,49.37
2019-05-29T08:36:09.953Z,49.58
2019-05-29T08:37:10.007Z,50.09
2019-05-29T08:38:09.958Z,50.59
2019-05-29T08:39:09.930Z,51.33
2019-05-29T08:40:09.923Z,51.61
2019-05-29T08:41:09.910Z,51.20
2019-05-29T08:42:22.487Z,50.70
2019-05-29T08:43:10.919Z,51.03
2019-05-29T08:44:09.872Z,51.61
2019-05-29T08:45:09.892Z,51.43
2019-05-29T08:46:09.855Z,51.43
2019-05-29T08:47:10.992Z,51.00
2019-05-29T08:48:09.846Z,51.13
2019-05-29T08:49:09.810Z,51.72
2019-05-29T08:50:18.219Z,50.90
2019-05-29T08:51:11.012Z,51.20
2019-05-29T08:52:12.161Z,51.00
2019-05-29T08:53:09.788Z,51.10
2019-05-29T08:54:23.394Z,49.58
2019-05-29T08:55:13.701Z,49.07
2019-05-29T08:56:09.745Z,48.66
2019-05-29T08:57:09.800Z,49.04
2019-05-29T08:58:09.749Z,48.43
2019-05-29T08:59:09.790Z,48.33
2019-05-29T09:00:09.697Z,48.94
2019-05-29T09:01:09.677Z,49.35
2019-05-29T09:02:09.675Z,49.25
2019-05-29T09:03:09.692Z,48.74
2019-05-29T09:04:09.655Z,48.23
2019-05-29T09:05:09.630Z,48.23
2019-05-29T09:06:13.352Z,47.92
2019-05-29T09:07:09.610Z,48.33
2019-05-29T09:08:09.633Z,48.43
2019-05-29T09:09:09.618Z,47.82
2019-05-29T09:10:09.592Z,47.42
2019-05-29T09:11:09.584Z,48.35
2019-05-29T09:12:09.556Z,47.82
2019-05-29T09:13:09.546Z,47.31
2019-05-29T09:14:09.557Z,47.82
2019-05-29T09:15:09.844Z,47.82
2019-05-29T09:16:09.539Z,47.72
2019-05-29T09:17:09.505Z,47.72
2019-05-29T09:18:09.491Z,47.52
2019-05-29T09:19:09.502Z,47.52
2019-05-29T09:20:27.130Z,47.21
2019-05-29T09:21:10.451Z,47.52
2019-05-29T09:22:09.455Z,47.42
2019-05-29T09:23:09.477Z,47.62
2019-05-29T09:24:09.507Z,47.31
2019-05-29T09:25:09.423Z,47.52
2019-05-29T09:26:16.041Z,47.92
2019-05-29T09:27:10.395Z,48.31
2019-05-29T09:28:09.377Z,47.82
2019-05-29T09:29:09.422Z,47.21
2019-05-29T09:30:09.360Z,47.21
2019-05-29T09:31:09.403Z,46.98
2019-05-29T09:32:09.338Z,47.09
2019-05-29T09:33:09.311Z,47.50
2019-05-29T09:34:09.355Z,46.37
2019-05-29T09:35:09.297Z,46.37
2019-05-29T09:36:09.303Z,46.17
2019-05-29T09:37:09.278Z,46.37
2019-05-29T09:38:09.269Z,47.29
2019-05-29T09:39:09.302Z,47.70
2019-05-29T09:40:09.253Z,47.78
2019-05-29T09:41:09.230Z,48.49
2019-05-29T09:42:09.228Z,47.06
2019-05-29T09:43:09.220Z,46.15
2019-05-29T09:44:09.223Z,45.64
2019-05-29T09:45:09.203Z,46.56
2019-05-29T09:46:09.169Z,47.06
2019-05-29T09:47:09.207Z,47.67
2019-05-29T09:48:09.204Z,46.15
2019-05-29T09:49:09.186Z,46.56
2019-05-29T09:50:09.130Z,45.84
2019-05-29T09:51:20.723Z,46.25
2019-05-29T09:52:10.112Z,46.25
2019-05-29T09:53:09.115Z,44.93
2019-05-29T09:54:09.163Z,44.93
2019-05-29T09:55:09.096Z,45.32
2019-05-29T09:56:09.066Z,45.14
2019-05-29T09:57:09.052Z,45.03
2019-05-29T09:58:09.044Z,46.05
2019-05-29T09:59:09.058Z,45.72
2019-05-29T10:00:09.022Z,46.03
2019-05-29T10:01:21.718Z,45.21
2019-05-29T10:02:09.994Z,46.33
2019-05-29T10:03:08.996Z,46.33
2019-05-29T10:04:09.000Z,45.42
2019-05-29T10:05:08.976Z,45.90
2019-05-29T10:06:09.602Z,45.40
2019-05-29T10:07:08.939Z,44.79
2019-05-29T10:08:08.937Z,44.28
2019-05-29T10:09:08.944Z,44.59
2019-05-29T10:10:08.917Z,44.59
2019-05-29T10:11:10.911Z,44.79
2019-05-29T10:12:08.885Z,45.83
2019-05-29T10:13:08.880Z,45.83
2019-05-29T10:14:08.887Z,45.72
2019-05-29T10:15:08.850Z,45.32
2019-05-29T10:16:08.849Z,46.33
2019-05-29T10:17:12.538Z,45.93
2019-05-29T10:18:30.012Z,45.11
2019-05-29T10:19:09.882Z,45.72
2019-05-29T10:20:08.796Z,45.70
2019-05-29T10:21:08.794Z,46.11
2019-05-29T10:22:08.780Z,45.70
2019-05-29T10:23:08.768Z,45.29
2019-05-29T10:24:08.785Z,43.26
2019-05-29T10:25:08.793Z,42.55
2019-05-29T10:26:08.727Z,42.66
2019-05-29T10:27:08.722Z,42.68
2019-05-29T10:28:08.718Z,42.88
2019-05-29T10:29:09.861Z,42.98
2019-05-29T10:30:08.691Z,43.26
2019-05-29T10:31:08.672Z,43.47
2019-05-29T10:32:08.719Z,43.47
2019-05-29T10:33:08.658Z,43.98
2019-05-29T10:34:08.662Z,44.08
2019-05-29T10:35:08.634Z,45.70
2019-05-29T10:36:08.616Z,45.60
2019-05-29T10:37:08.607Z,45.07
2019-05-29T10:38:08.595Z,43.85
2019-05-29T10:39:08.615Z,44.26
2019-05-29T10:40:08.572Z,45.17
2019-05-29T10:41:08.570Z,44.26
2019-05-29T10:42:08.543Z,44.77
2019-05-29T10:43:08.544Z,44.36
2019-05-29T10:44:12.447Z,44.16
2019-05-29T10:45:08.518Z,44.46
2019-05-29T10:46:08.525Z,43.85
2019-05-29T10:47:08.516Z,43.44
2019-05-29T10:48:08.485Z,43.24
2019-05-29T10:49:08.490Z,43.24
2019-05-29T10:50:08.505Z,44.06
2019-05-29T10:51:08.471Z,44.46
2019-05-29T10:52:16.129Z,43.35
2019-05-29T10:53:09.423Z,43.85
2019-05-29T10:54:08.455Z,43.32
2019-05-29T10:55:08.407Z,43.24
2019-05-29T10:56:08.403Z,44.13
2019-05-29T10:57:08.392Z,44.13
2019-05-29T10:58:08.371Z,43.84
2019-05-29T10:59:08.390Z,42.51
2019-05-29T11:00:08.372Z,42.31
2019-05-29T11:01:08.384Z,42.31
2019-05-29T11:02:08.329Z,43.93
2019-05-29T11:03:08.317Z,42.29
2019-05-29T11:04:08.339Z,42.80
2019-05-29T11:05:08.308Z,42.39
2019-05-29T11:06:08.281Z,43.30
2019-05-29T11:07:08.275Z,42.68
2019-05-29T11:08:08.273Z,42.47
2019-05-29T11:09:08.284Z,41.05
2019-05-29T11:10:08.242Z,40.04
2019-05-29T11:11:08.228Z,40.04
2019-05-29T11:12:08.255Z,40.24
2019-05-29T11:13:08.203Z,40.34
2019-05-29T11:14:08.204Z,41.05
2019-05-29T11:15:20.630Z,41.88
2019-05-29T11:16:09.168Z,41.26
2019-05-29T11:17:08.167Z,41.86
2019-05-29T11:18:08.168Z,41.97
2019-05-29T11:19:08.168Z,42.49
2019-05-29T11:20:08.636Z,41.88
2019-05-29T11:21:08.132Z,41.78
2019-05-29T11:22:25.151Z,42.09
2019-05-29T11:23:09.100Z,41.68
2019-05-29T11:24:08.088Z,41.88
2019-05-29T11:25:21.685Z,41.58
2019-05-29T11:26:09.061Z,41.58
2019-05-29T11:27:08.058Z,41.28
2019-05-29T11:28:08.036Z,42.37
2019-05-29T11:29:08.038Z,42.17
2019-05-29T11:30:08.049Z,42.49
2019-05-29T11:31:08.018Z,41.26
2019-05-29T11:32:08.021Z,41.99
2019-05-29T11:33:08.137Z,42.29
2019-05-29T11:34:07.973Z,41.88
2019-05-29T11:35:08.026Z,42.19
2019-05-29T11:36:12.993Z,42.29
2019-05-29T11:37:08.948Z,42.39
2019-05-29T11:38:07.937Z,42.90
2019-05-29T11:39:07.919Z,42.60
2019-05-29T11:40:07.945Z,43.20
2019-05-29T11:41:25.167Z,42.98
2019-05-29T11:42:08.887Z,42.57
2019-05-29T11:43:07.884Z,42.57
2019-05-29T11:44:07.870Z,42.78
2019-05-29T11:45:07.883Z,43.16
2019-05-29T11:46:07.848Z,41.24
2019-05-29T11:47:07.830Z,41.95
2019-05-29T11:48:07.840Z,41.85
2019-05-29T11:49:07.814Z,42.25
2019-05-29T11:50:18.762Z,42.25
2019-05-29T11:51:08.784Z,41.44
2019-05-29T11:52:23.567Z,41.74
2019-05-29T11:53:08.767Z,42.76
2019-05-29T11:54:07.760Z,41.44
2019-05-29T11:55:08.455Z,39.31
2019-05-29T11:56:07.730Z,40.43
2019-05-29T11:57:07.749Z,40.22
2019-05-29T11:58:07.730Z,40.22
2019-05-29T11:59:07.706Z,40.73
2019-05-29T12:00:19.052Z,41.85
2019-05-29T12:01:08.668Z,41.85
2019-05-29T12:02:07.669Z,41.44
2019-05-29T12:03:07.671Z,41.44
2019-05-29T12:04:24.292Z,41.44
2019-05-29T12:05:08.649Z,41.32
2019-05-29T12:06:07.835Z,41.34
2019-05-29T12:07:07.608Z,39.50
2019-05-29T12:08:07.601Z,40.31
2019-05-29T12:09:07.576Z,39.80
2019-05-29T12:10:07.924Z,39.21
2019-05-29T12:11:07.576Z,40.02
2019-05-29T12:12:07.557Z,40.63
2019-05-29T12:13:07.539Z,41.34
2019-05-29T12:14:07.524Z,42.25
2019-05-29T12:15:13.463Z,41.44
2019-05-29T12:16:08.524Z,41.83
2019-05-29T12:17:07.517Z,40.20
2019-05-29T12:18:22.689Z,38.97
2019-05-29T12:19:08.472Z,39.58
2019-05-29T12:20:26.380Z,38.28
2019-05-29T12:21:08.452Z,38.08
2019-05-29T12:22:07.447Z,38.59
2019-05-29T12:23:22.850Z,38.48
2019-05-29T12:24:08.433Z,39.09
2019-05-29T12:25:07.439Z,38.79
2019-05-29T12:26:21.961Z,38.60
2019-05-29T12:27:08.394Z,40.00
2019-05-29T12:28:07.451Z,39.19
2019-05-29T12:29:11.664Z,39.90
2019-05-29T12:30:07.378Z,39.29
2019-05-29T12:31:07.384Z,38.99
2019-05-29T12:32:10.322Z,39.90
2019-05-29T12:33:07.325Z,40.00
2019-05-29T12:34:18.831Z,39.78
2019-05-29T12:35:08.332Z,40.29
2019-05-29T12:36:07.295Z,39.46
2019-05-29T12:37:07.381Z,40.17
2019-05-29T12:38:07.286Z,39.76
2019-05-29T12:39:07.254Z,39.06
2019-05-29T12:40:07.284Z,39.36
2019-05-29T12:41:07.250Z,39.46
2019-05-29T12:42:07.350Z,39.76
2019-05-29T12:43:23.743Z,39.66
2019-05-29T12:44:08.195Z,39.76
2019-05-29T12:45:07.190Z,39.06
2019-05-29T12:46:07.220Z,38.85
2019-05-29T12:47:07.230Z,38.95
2019-05-29T12:48:12.907Z,38.35
2019-05-29T12:49:08.138Z,38.63
2019-05-29T12:50:07.118Z,39.15
2019-05-29T12:51:07.177Z,39.54
2019-05-29T12:52:08.695Z,39.02